• location
  • image
mod_vvisit_countermod_vvisit_countermod_vvisit_countermod_vvisit_countermod_vvisit_countermod_vvisit_counter
mod_vvisit_counterToday264
mod_vvisit_counterYesterday457
mod_vvisit_counterThis week1161
mod_vvisit_counterLast week3740
mod_vvisit_counterThis month11888
mod_vvisit_counterLast month21442
mod_vvisit_counterAll days719117

We have: 32 guests online
Your IP: 54.198.71.184
 , 
Today: Aug 23, 2017
Airport / Company / List of services

List of services

  

Services of Siauliai International Airport:

 

Leading (follow me)

Ground services

Aircraft loading/unloading

Aircraft parking

Aircraft security

Aircraft fuel supply

Passenger baggage service

Business class passenger service

Submission of information to passengers

Serving meals to passengers and crew

Additional services for aircraft crewmembers

Aviation Security

Dining Cafe

First medical aid

Hotel reservations

Transporting crew to/from the city

Taxi booking 

Border procedures

Customs procedures

 

Today

Wednesday, 23 August 2017

Weather Forecast

Siauliai °C
   

Aviation Weather Forecast

[source: ADDS]
METAR
EYSA 230950Z 33012KT 9999 FEW027 BKN074 17/11 Q1011 BLU NOSIG =
TAF
TAF EYSA 230800Z 2309/2318 32016KT 9000 BKN020 TEMPO 2309/2312 SCT005 BKN015CB TEMPO 2312/2318 3000 TSRA BKN005 BKN015CB =
SR / SS: 03:18 / 17:42 UTC (EYSA 2017-08-23)

Search

Who's Online

We have 32 guests online

tic logo en